Time;durP1;ratioP1;P1;durP2;ratioP2;P2;SDS_P1;SDS_P2;PMS_P1;PMS_P2;Temp;Humidity;BMP_temperature;BMP_pressure;BME280_temperature;BME280_humidity;BME280_pressure;Samples;Min_cycle;Max_cycle;Signal;HPM_P1;HPM_P2
2023/12/25 00:01:59;;;;;;;;;7.00;3.00;;;;;;;;5066945;28;8775;-79
2023/12/25 00:04:26;;;;;;;;;6.25;3.25;;;;;;;;5062340;28;9640;-79
2023/12/25 00:06:53;;;;;;;;;6.25;5.25;;;;;;;;5064558;28;8965;-79
2023/12/25 00:09:23;;;;;;;;;5.25;4.00;;;;;;;;5070415;28;8867;-79
2023/12/25 00:11:52;;;;;;;;;3.50;3.50;;;;;;;;5061563;28;8857;-79
2023/12/25 00:14:20;;;;;;;;;4.75;4.50;;;;;;;;5064581;28;9621;-80
2023/12/25 00:16:48;;;;;;;;;5.75;4.50;;;;;;;;5049428;28;8865;-79
2023/12/25 00:19:15;;;;;;;;;7.00;5.00;;;;;;;;5068958;28;8843;-79
2023/12/25 00:21:42;;;;;;;;;4.00;4.00;;;;;;;;5068220;28;8834;-78
2023/12/25 00:24:09;;;;;;;;;5.25;3.00;;;;;;;;5068641;28;8876;-79
2023/12/25 00:26:40;;;;;;;;;4.75;4.00;;;;;;;;5066346;28;8885;-81
2023/12/25 00:29:09;;;;;;;;;3.50;3.50;;;;;;;;5067666;28;8973;-79
2023/12/25 00:31:43;;;;;;;;;4.25;4.25;;;;;;;;5066075;28;8816;-80
2023/12/25 00:34:10;;;;;;;;;3.50;3.50;;;;;;;;5068615;28;9903;-79
2023/12/25 00:36:37;;;;;;;;;3.50;3.50;;;;;;;;5067971;28;8900;-79
2023/12/25 00:39:04;;;;;;;;;3.75;3.75;;;;;;;;5068523;28;8838;-79
2023/12/25 00:41:32;;;;;;;;;3.50;3.00;;;;;;;;5070904;28;9707;-79
2023/12/25 00:43:59;;;;;;;;;6.50;4.50;;;;;;;;5071830;28;8850;-79
2023/12/25 00:46:28;;;;;;;;;6.00;5.00;;;;;;;;5070645;28;8855;-79
2023/12/25 00:48:55;;;;;;;;;7.00;4.00;;;;;;;;5070394;28;8847;-79
2023/12/25 00:51:23;;;;;;;;;5.75;4.25;;;;;;;;5072119;28;8854;-78
2023/12/25 00:53:51;;;;;;;;;4.75;4.75;;;;;;;;5072222;28;8891;-79
2023/12/25 00:56:20;;;;;;;;;4.50;4.50;;;;;;;;5069219;28;8841;-79
2023/12/25 00:58:47;;;;;;;;;4.00;4.00;;;;;;;;5067892;28;8835;-79
2023/12/25 01:01:16;;;;;;;;;4.00;4.00;;;;;;;;5064961;28;8771;-80
2023/12/25 01:03:45;;;;;;;;;5.50;4.00;;;;;;;;5065093;28;8869;-78
2023/12/25 01:06:12;;;;;;;;;6.50;4.50;;;;;;;;5063722;28;9623;-79
2023/12/25 01:08:44;;;;;;;;;5.00;3.75;;;;;;;;5073295;28;8877;-80
2023/12/25 01:11:11;;;;;;;;;8.00;4.75;;;;;;;;5061981;28;9007;-80
2023/12/25 01:13:38;;;;;;;;;9.00;5.33;;;;;;;;5053836;28;8853;-79
2023/12/25 01:16:06;;;;;;;;;4.50;3.25;;;;;;;;5062654;28;8935;-79
2023/12/25 01:18:33;;;;;;;;;7.25;3.00;;;;;;;;5071113;28;8957;-79
2023/12/25 01:21:02;;;;;;;;;4.75;2.25;;;;;;;;5069184;28;8989;-80
2023/12/25 01:23:29;;;;;;;;;3.25;3.25;;;;;;;;5067064;28;8891;-79
2023/12/25 01:25:57;;;;;;;;;2.67;2.67;;;;;;;;5068021;28;8928;-80
2023/12/25 01:28:24;;;;;;;;;5.50;3.00;;;;;;;;5067246;28;9076;-79
2023/12/25 01:30:51;;;;;;;;;6.50;3.75;;;;;;;;5067563;28;8913;-79
2023/12/25 01:33:18;;;;;;;;;5.50;4.50;;;;;;;;5067451;28;8855;-79
2023/12/25 01:35:48;;;;;;;;;6.25;3.00;;;;;;;;5059439;28;8850;-79
2023/12/25 01:38:17;;;;;;;;;3.75;2.75;;;;;;;;5065765;28;8835;-79
2023/12/25 01:40:45;;;;;;;;;2.00;1.50;;;;;;;;5072733;28;9488;-80
2023/12/25 01:43:12;;;;;;;;;4.50;3.00;;;;;;;;5074485;28;9679;-79
2023/12/25 01:45:40;;;;;;;;;4.25;3.50;;;;;;;;5061818;28;8858;-78
2023/12/25 01:48:08;;;;;;;;;7.50;3.50;;;;;;;;5068536;28;8871;-80
2023/12/25 01:50:35;;;;;;;;;5.25;4.00;;;;;;;;5071132;28;8855;-79
2023/12/25 01:53:03;;;;;;;;;4.00;2.25;;;;;;;;5066276;28;8857;-80
2023/12/25 01:55:32;;;;;;;;;5.25;2.75;;;;;;;;5051848;28;8971;-80
2023/12/25 01:58:02;;;;;;;;;3.75;3.75;;;;;;;;5064681;28;8856;-79
2023/12/25 02:00:30;;;;;;;;;3.50;2.00;;;;;;;;5051127;28;8770;-79
2023/12/25 02:02:57;;;;;;;;;5.50;3.50;;;;;;;;5071054;28;8843;-79
2023/12/25 02:05:29;;;;;;;;;4.00;2.25;;;;;;;;5072481;28;8877;-80
2023/12/25 02:07:56;;;;;;;;;6.00;3.75;;;;;;;;5056114;28;8849;-80
2023/12/25 02:10:27;;;;;;;;;4.50;3.00;;;;;;;;5058523;28;8976;-77
2023/12/25 02:12:57;;;;;;;;;7.50;5.00;;;;;;;;5064085;28;9617;-79
2023/12/25 02:15:26;;;;;;;;;7.25;3.75;;;;;;;;5070210;28;8835;-78
2023/12/25 02:17:53;;;;;;;;;4.00;4.00;;;;;;;;5070928;28;8855;-78
2023/12/25 02:20:21;;;;;;;;;5.00;4.00;;;;;;;;5069836;28;8981;-79
2023/12/25 02:22:49;;;;;;;;;6.50;2.00;;;;;;;;5070828;28;8851;-79
2023/12/25 02:25:33;;;;;;;;;6.00;3.67;;;;;;;;5069779;28;8870;-79
2023/12/25 02:28:02;;;;;;;;;4.00;3.25;;;;;;;;5070169;28;8854;-78
2023/12/25 02:30:29;;;;;;;;;4.00;4.00;;;;;;;;5069463;28;8743;-80
2023/12/25 02:32:56;;;;;;;;;5.00;3.25;;;;;;;;5071447;28;8874;-79
2023/12/25 02:35:24;;;;;;;;;3.75;2.00;;;;;;;;5070037;28;8923;-79
2023/12/25 02:37:52;;;;;;;;;3.25;3.00;;;;;;;;5073342;28;8870;-79
2023/12/25 02:40:19;;;;;;;;;4.25;4.25;;;;;;;;5075134;28;8891;-79
2023/12/25 02:42:49;;;;;;;;;5.00;3.00;;;;;;;;5076288;28;8858;-79
2023/12/25 02:45:17;;;;;;;;;6.00;3.25;;;;;;;;5076426;28;8847;-79
2023/12/25 02:47:45;;;;;;;;;4.50;3.25;;;;;;;;5064964;28;8888;-79
2023/12/25 02:50:12;;;;;;;;;6.00;4.25;;;;;;;;5077796;28;8982;-80
2023/12/25 02:52:40;;;;;;;;;3.00;3.00;;;;;;;;5078029;28;8934;-80
2023/12/25 02:55:07;;;;;;;;;3.25;3.25;;;;;;;;5079665;28;8857;-79
2023/12/25 02:57:41;;;;;;;;;5.00;5.00;;;;;;;;5074446;28;8851;-79
2023/12/25 03:00:09;;;;;;;;;3.00;3.00;;;;;;;;5071851;28;8836;-79
2023/12/25 03:02:37;;;;;;;;;4.00;4.00;;;;;;;;5069230;28;8857;-79
2023/12/25 03:05:05;;;;;;;;;2.00;2.00;;;;;;;;5073704;28;8946;-78
2023/12/25 03:07:36;;;;;;;;;6.50;3.00;;;;;;;;5073494;28;8839;-79
2023/12/25 03:10:03;;;;;;;;;2.50;2.50;;;;;;;;5072997;28;8850;-79
2023/12/25 03:12:31;;;;;;;;;5.00;3.25;;;;;;;;5070354;28;8870;-79
2023/12/25 03:14:58;;;;;;;;;5.25;3.00;;;;;;;;5071791;28;8873;-79
2023/12/25 03:17:28;;;;;;;;;8.50;3.50;;;;;;;;5068834;28;8885;-79
2023/12/25 03:19:59;;;;;;;;;4.00;2.25;;;;;;;;5069694;28;8889;-79
2023/12/25 03:22:26;;;;;;;;;3.50;2.25;;;;;;;;5067700;28;8851;-80
2023/12/25 03:24:53;;;;;;;;;2.50;2.25;;;;;;;;5070174;28;8866;-80
2023/12/25 03:27:21;;;;;;;;;2.50;2.50;;;;;;;;5066128;28;8854;-79
2023/12/25 03:29:48;;;;;;;;;2.75;2.75;;;;;;;;5069154;28;9641;-79
2023/12/25 03:32:16;;;;;;;;;5.25;3.00;;;;;;;;5072625;28;8815;-79
2023/12/25 03:34:47;;;;;;;;;3.00;1.75;;;;;;;;5069566;28;8847;-79
2023/12/25 03:37:15;;;;;;;;;4.25;4.00;;;;;;;;5069974;28;8855;-79
2023/12/25 03:39:42;;;;;;;;;4.50;3.00;;;;;;;;5069301;28;8874;-79
2023/12/25 03:42:10;;;;;;;;;2.75;2.00;;;;;;;;5067484;28;9639;-79
2023/12/25 03:44:37;;;;;;;;;3.00;3.00;;;;;;;;5056593;28;8851;-80
2023/12/25 03:47:04;;;;;;;;;2.50;2.50;;;;;;;;5069688;28;9613;-80
2023/12/25 03:49:31;;;;;;;;;5.00;3.50;;;;;;;;5068998;28;8847;-79
2023/12/25 03:52:01;;;;;;;;;4.25;3.25;;;;;;;;5069226;28;8850;-79
2023/12/25 03:54:30;;;;;;;;;3.50;3.50;;;;;;;;5068961;28;8855;-79
2023/12/25 03:56:57;;;;;;;;;4.75;3.75;;;;;;;;5066608;28;8991;-79
2023/12/25 03:59:25;;;;;;;;;3.50;3.25;;;;;;;;5068753;28;8858;-79
2023/12/25 04:01:52;;;;;;;;;6.00;3.00;;;;;;;;5056125;28;8818;-80
2023/12/25 04:04:19;;;;;;;;;2.00;2.00;;;;;;;;5067879;28;8894;-78
2023/12/25 04:06:46;;;;;;;;;2.25;2.25;;;;;;;;5056155;28;8859;-78
2023/12/25 04:09:13;;;;;;;;;4.00;3.25;;;;;;;;5068045;28;8851;-79
2023/12/25 04:11:41;;;;;;;;;3.25;1.75;;;;;;;;5068626;28;8862;-79
2023/12/25 04:14:10;;;;;;;;;6.50;4.00;;;;;;;;5067675;28;9691;-79
2023/12/25 04:16:37;;;;;;;;;2.00;2.00;;;;;;;;5068889;28;9630;-79
2023/12/25 04:19:04;;;;;;;;;3.50;3.50;;;;;;;;5068005;28;8861;-79
2023/12/25 04:21:32;;;;;;;;;4.00;2.25;;;;;;;;5066851;28;8869;-79
2023/12/25 04:24:00;;;;;;;;;3.50;3.00;;;;;;;;5067532;28;8850;-78
2023/12/25 04:26:28;;;;;;;;;4.25;3.00;;;;;;;;5069554;28;8858;-79
2023/12/25 04:28:56;;;;;;;;;2.00;2.00;;;;;;;;5070204;28;8871;-79
2023/12/25 04:31:26;;;;;;;;;2.75;2.75;;;;;;;;5072332;28;8898;-79
2023/12/25 04:33:53;;;;;;;;;3.00;3.00;;;;;;;;5070959;28;8867;-79
2023/12/25 04:36:21;;;;;;;;;4.50;4.50;;;;;;;;5064940;28;8847;-79
2023/12/25 04:38:48;;;;;;;;;5.25;2.75;;;;;;;;5076570;28;8843;-78
2023/12/25 04:41:20;;;;;;;;;5.00;3.00;;;;;;;;5077356;28;8855;-78
2023/12/25 04:43:48;;;;;;;;;3.00;2.00;;;;;;;;5070225;28;8865;-78
2023/12/25 04:46:18;;;;;;;;;5.00;2.25;;;;;;;;5072661;28;8863;-79
2023/12/25 04:48:45;;;;;;;;;5.00;3.50;;;;;;;;5073107;28;8869;-77
2023/12/25 04:51:15;;;;;;;;;2.75;1.75;;;;;;;;5061928;28;8845;-80
2023/12/25 04:53:44;;;;;;;;;1.00;1.00;;;;;;;;5070167;28;8837;-79
2023/12/25 04:56:11;;;;;;;;;2.00;2.00;;;;;;;;5072336;28;8875;-79
2023/12/25 04:58:39;;;;;;;;;2.50;2.00;;;;;;;;5067509;28;8960;-80
2023/12/25 05:01:06;;;;;;;;;2.25;2.25;;;;;;;;5063732;28;8795;-79
2023/12/25 05:03:35;;;;;;;;;4.75;1.50;;;;;;;;5067698;28;8831;-79
2023/12/25 05:06:04;;;;;;;;;2.75;1.00;;;;;;;;5067263;28;8861;-79
2023/12/25 05:08:31;;;;;;;;;4.00;4.00;;;;;;;;5067070;28;9013;-79
2023/12/25 05:10:58;;;;;;;;;1.75;1.75;;;;;;;;5067540;28;8980;-79
2023/12/25 05:13:26;;;;;;;;;1.00;1.00;;;;;;;;5068191;28;8858;-80
2023/12/25 05:15:53;;;;;;;;;0.75;0.00;;;;;;;;5069884;28;8846;-79
2023/12/25 05:18:20;;;;;;;;;4.25;2.75;;;;;;;;5074492;28;8974;-79
2023/12/25 05:20:49;;;;;;;;;2.00;2.00;;;;;;;;5074820;28;8895;-78
2023/12/25 05:23:16;;;;;;;;;1.75;1.75;;;;;;;;5073653;28;8850;-79
2023/12/25 05:25:43;;;;;;;;;1.00;1.00;;;;;;;;5071244;28;9571;-79
2023/12/25 05:28:10;;;;;;;;;3.00;2.00;;;;;;;;5071681;28;9260;-78
2023/12/25 05:30:38;;;;;;;;;1.75;1.75;;;;;;;;5059660;28;8791;-78
2023/12/25 05:33:05;;;;;;;;;2.75;2.75;;;;;;;;5063736;28;8854;-78
2023/12/25 05:35:32;;;;;;;;;0.25;0.25;;;;;;;;5066614;28;8842;-79
2023/12/25 05:38:01;;;;;;;;;1.75;1.75;;;;;;;;5071231;28;9649;-80
2023/12/25 05:40:28;;;;;;;;;2.25;2.25;;;;;;;;5071023;28;8846;-79
2023/12/25 05:42:55;;;;;;;;;1.50;1.50;;;;;;;;5072502;28;8884;-78
2023/12/25 05:45:23;;;;;;;;;1.00;1.00;;;;;;;;5070575;28;8861;-79
2023/12/25 05:47:50;;;;;;;;;1.50;0.75;;;;;;;;5071871;28;8867;-79
2023/12/25 05:50:18;;;;;;;;;2.00;2.00;;;;;;;;5070663;28;8905;-79
2023/12/25 05:52:47;;;;;;;;;0.00;0.00;;;;;;;;5071449;28;8859;-79
2023/12/25 05:55:16;;;;;;;;;3.00;1.00;;;;;;;;5070843;28;8872;-80
2023/12/25 05:57:43;;;;;;;;;3.25;0.50;;;;;;;;5070235;28;8948;-80
2023/12/25 06:00:12;;;;;;;;;0.50;0.50;;;;;;;;5069063;28;8854;-79
2023/12/25 06:02:39;;;;;;;;;0.75;0.75;;;;;;;;5070163;28;8855;-78
2023/12/25 06:05:06;;;;;;;;;1.25;1.25;;;;;;;;5070284;28;8884;-79
2023/12/25 06:07:34;;;;;;;;;1.00;1.00;;;;;;;;5070492;28;8858;-79
2023/12/25 06:10:04;;;;;;;;;0.25;0.25;;;;;;;;5071159;28;8851;-78
2023/12/25 06:12:32;;;;;;;;;2.00;1.00;;;;;;;;5069000;28;8905;-79
2023/12/25 06:15:03;;;;;;;;;1.00;1.00;;;;;;;;5070917;28;8851;-79
2023/12/25 06:17:30;;;;;;;;;1.25;1.00;;;;;;;;5071682;28;9751;-79
2023/12/25 06:19:57;;;;;;;;;1.00;1.00;;;;;;;;5073195;28;8882;-80
2023/12/25 06:22:25;;;;;;;;;1.00;1.00;;;;;;;;5073637;28;8914;-79
2023/12/25 06:24:55;;;;;;;;;4.50;1.50;;;;;;;;5076397;28;8877;-80
2023/12/25 06:27:23;;;;;;;;;0.75;0.75;;;;;;;;5070625;28;9675;-79
2023/12/25 06:29:54;;;;;;;;;0.75;0.75;;;;;;;;5077717;28;8869;-79
2023/12/25 06:32:22;;;;;;;;;1.25;1.25;;;;;;;;5063430;28;8806;-78
2023/12/25 06:34:49;;;;;;;;;2.25;1.00;;;;;;;;5076031;28;8859;-80
2023/12/25 06:37:18;;;;;;;;;2.00;1.00;;;;;;;;5072578;28;8859;-80
2023/12/25 06:39:49;;;;;;;;;1.00;1.00;;;;;;;;5071357;28;8862;-80
2023/12/25 06:42:16;;;;;;;;;0.00;0.00;;;;;;;;5069690;28;9643;-79
2023/12/25 06:44:43;;;;;;;;;1.25;1.00;;;;;;;;5074047;28;8862;-80
2023/12/25 06:47:13;;;;;;;;;0.50;0.50;;;;;;;;5073638;28;8851;-80
2023/12/25 06:49:40;;;;;;;;;0.75;0.75;;;;;;;;5067981;28;8956;-79
2023/12/25 06:52:07;;;;;;;;;1.50;1.00;;;;;;;;5066543;28;8834;-80
2023/12/25 06:54:35;;;;;;;;;2.00;0.75;;;;;;;;5057247;28;9373;-79
2023/12/25 06:57:02;;;;;;;;;0.25;0.25;;;;;;;;5066564;28;8965;-80
2023/12/25 06:59:30;;;;;;;;;1.50;0.00;;;;;;;;5068130;28;8866;-79
2023/12/25 07:01:57;;;;;;;;;1.75;1.00;;;;;;;;5073136;28;8925;-78
2023/12/25 07:04:26;;;;;;;;;0.00;0.00;;;;;;;;5066529;28;8919;-75
2023/12/25 07:06:53;;;;;;;;;1.00;1.00;;;;;;;;5068864;28;8858;-76
2023/12/25 07:09:20;;;;;;;;;0.50;0.00;;;;;;;;5064191;28;8849;-76
2023/12/25 07:11:47;;;;;;;;;0.00;0.00;;;;;;;;5070402;28;8855;-84
2023/12/25 07:14:15;;;;;;;;;0.00;0.00;;;;;;;;5067375;28;8845;-83
2023/12/25 07:16:42;;;;;;;;;2.00;0.25;;;;;;;;5068494;28;8851;-77
2023/12/25 07:19:09;;;;;;;;;0.00;0.00;;;;;;;;5069303;28;8965;-77
2023/12/25 07:21:38;;;;;;;;;0.00;0.00;;;;;;;;5070120;28;9683;-77
2023/12/25 07:24:06;;;;;;;;;0.00;0.00;;;;;;;;5070340;28;8941;-82
2023/12/25 07:26:33;;;;;;;;;0.00;0.00;;;;;;;;5061564;28;8843;-82
2023/12/25 07:29:00;;;;;;;;;0.00;0.00;;;;;;;;5067756;28;8843;-79
2023/12/25 07:31:27;;;;;;;;;0.00;0.00;;;;;;;;5069192;28;8831;-81
2023/12/25 07:33:55;;;;;;;;;0.75;0.00;;;;;;;;5064920;28;8869;-80
2023/12/25 07:36:25;;;;;;;;;0.00;0.00;;;;;;;;5061361;28;8924;-81
2023/12/25 07:38:53;;;;;;;;;0.00;0.00;;;;;;;;5069190;28;8857;-78
2023/12/25 07:41:24;;;;;;;;;1.00;0.25;;;;;;;;5069345;28;8866;-76
2023/12/25 07:43:52;;;;;;;;;0.00;0.00;;;;;;;;5068419;28;8862;-77
2023/12/25 07:46:24;;;;;;;;;0.00;0.00;;;;;;;;5068271;28;8858;-77
2023/12/25 07:48:51;;;;;;;;;0.00;0.00;;;;;;;;5066089;28;8865;-76
2023/12/25 07:51:21;;;;;;;;;0.00;0.00;;;;;;;;5066978;28;8886;-75
2023/12/25 07:53:48;;;;;;;;;0.00;0.00;;;;;;;;5067500;28;8847;-77
2023/12/25 07:56:17;;;;;;;;;0.00;0.00;;;;;;;;5067991;28;8859;-75
2023/12/25 07:58:44;;;;;;;;;1.75;0.75;;;;;;;;5068597;28;8867;-78
2023/12/25 08:01:13;;;;;;;;;0.00;0.00;;;;;;;;5068550;28;8933;-76
2023/12/25 08:03:42;;;;;;;;;1.00;1.00;;;;;;;;5068951;28;8944;-78
2023/12/25 08:06:11;;;;;;;;;0.00;0.00;;;;;;;;5070253;28;8871;-79
2023/12/25 08:08:38;;;;;;;;;0.00;0.00;;;;;;;;5072378;28;8867;-80
2023/12/25 08:11:05;;;;;;;;;0.00;0.00;;;;;;;;5072826;28;8855;-81
2023/12/25 08:13:34;;;;;;;;;0.00;0.00;;;;;;;;5074369;28;8843;-82
2023/12/25 08:16:01;;;;;;;;;0.00;0.00;;;;;;;;5063258;28;8834;-76
2023/12/25 08:18:28;;;;;;;;;0.00;0.00;;;;;;;;5065787;28;8850;-79
2023/12/25 08:20:56;;;;;;;;;0.00;0.00;;;;;;;;5061607;28;8856;-76
2023/12/25 08:23:23;;;;;;;;;0.00;0.00;;;;;;;;5067945;28;8843;-76
2023/12/25 08:25:50;;;;;;;;;0.00;0.00;;;;;;;;5065187;28;8910;-78
2023/12/25 08:28:17;;;;;;;;;1.00;0.00;;;;;;;;5053670;28;8854;-78
2023/12/25 08:30:47;;;;;;;;;0.00;0.00;;;;;;;;5048708;28;8839;-76
2023/12/25 08:33:20;;;;;;;;;0.75;0.00;;;;;;;;5067911;28;8989;-76
2023/12/25 08:35:47;;;;;;;;;0.00;0.00;;;;;;;;5066822;28;8858;-78
2023/12/25 08:38:17;;;;;;;;;0.00;0.00;;;;;;;;5069754;28;8854;-76
2023/12/25 08:40:48;;;;;;;;;0.00;0.00;;;;;;;;5067582;28;8849;-85
2023/12/25 08:43:15;;;;;;;;;0.00;0.00;;;;;;;;5067676;28;8870;-76
2023/12/25 08:45:43;;;;;;;;;0.00;0.00;;;;;;;;5067739;28;8881;-82
2023/12/25 08:48:11;;;;;;;;;0.00;0.00;;;;;;;;5066999;28;8891;-78
2023/12/25 08:50:38;;;;;;;;;1.00;0.00;;;;;;;;5066515;28;8863;-75
2023/12/25 08:53:06;;;;;;;;;0.00;0.00;;;;;;;;5067359;28;8842;-82
2023/12/25 08:55:35;;;;;;;;;0.00;0.00;;;;;;;;5050190;28;8825;-77
2023/12/25 08:58:07;;;;;;;;;0.00;0.00;;;;;;;;5064418;28;8851;-79
2023/12/25 09:00:37;;;;;;;;;0.00;0.00;;;;;;;;5059539;28;8775;-81
2023/12/25 09:03:06;;;;;;;;;0.00;0.00;;;;;;;;5065785;28;8976;-80
2023/12/25 09:05:37;;;;;;;;;0.00;0.00;;;;;;;;5067258;28;8863;-77
2023/12/25 09:08:06;;;;;;;;;0.00;0.00;;;;;;;;5066061;28;8946;-76
2023/12/25 09:10:36;;;;;;;;;0.00;0.00;;;;;;;;5067705;28;8854;-78
2023/12/25 09:13:04;;;;;;;;;0.00;0.00;;;;;;;;5067260;28;8897;-78
2023/12/25 09:15:31;;;;;;;;;0.00;0.00;;;;;;;;5069153;28;8871;-77
2023/12/25 09:18:01;;;;;;;;;0.00;0.00;;;;;;;;5065291;28;8851;-80
2023/12/25 09:20:29;;;;;;;;;0.75;0.00;;;;;;;;5071009;28;8978;-75
2023/12/25 09:22:57;;;;;;;;;0.00;0.00;;;;;;;;5070062;28;8866;-75
2023/12/25 09:25:28;;;;;;;;;0.00;0.00;;;;;;;;5068255;28;8866;-80
2023/12/25 09:27:55;;;;;;;;;0.00;0.00;;;;;;;;5067786;28;8843;-76
2023/12/25 09:30:24;;;;;;;;;0.00;0.00;;;;;;;;5067273;28;8912;-81
2023/12/25 09:32:52;;;;;;;;;0.75;0.00;;;;;;;;5068551;28;8877;-83
2023/12/25 09:35:19;;;;;;;;;0.00;0.00;;;;;;;;5054988;28;8922;-80
2023/12/25 09:37:46;;;;;;;;;0.00;0.00;;;;;;;;5067338;28;8869;-76
2023/12/25 09:40:15;;;;;;;;;0.00;0.00;;;;;;;;5065831;28;8916;-78
2023/12/25 09:42:44;;;;;;;;;0.00;0.00;;;;;;;;5066647;28;8900;-79
2023/12/25 09:45:14;;;;;;;;;0.00;0.00;;;;;;;;5067295;28;8882;-79
2023/12/25 09:47:42;;;;;;;;;0.00;0.00;;;;;;;;5058418;28;8877;-78
2023/12/25 09:50:10;;;;;;;;;0.00;0.00;;;;;;;;5065197;28;8906;-81
2023/12/25 09:52:38;;;;;;;;;0.00;0.00;;;;;;;;5068425;28;8865;-79
2023/12/25 09:55:08;;;;;;;;;0.75;0.00;;;;;;;;5068524;28;8853;-80
2023/12/25 09:57:40;;;;;;;;;0.00;0.00;;;;;;;;5071026;28;8855;-81
2023/12/25 10:00:09;;;;;;;;;0.00;0.00;;;;;;;;5068050;28;8866;-77
2023/12/25 10:02:43;;;;;;;;;0.00;0.00;;;;;;;;5064036;28;8849;-78
2023/12/25 10:05:12;;;;;;;;;0.00;0.00;;;;;;;;5072007;28;8986;-78
2023/12/25 10:07:39;;;;;;;;;0.00;0.00;;;;;;;;5070597;28;8850;-79
2023/12/25 10:10:10;;;;;;;;;0.00;0.00;;;;;;;;5074533;28;8847;-79
2023/12/25 10:12:44;;;;;;;;;0.00;0.00;;;;;;;;5071874;28;8863;-76
2023/12/25 10:15:12;;;;;;;;;0.00;0.00;;;;;;;;5071103;28;9641;-76
2023/12/25 10:17:39;;;;;;;;;0.00;0.00;;;;;;;;5070715;28;8969;-78
2023/12/25 10:20:08;;;;;;;;;0.00;0.00;;;;;;;;5069424;28;8839;-77
2023/12/25 10:22:38;;;;;;;;;0.00;0.00;;;;;;;;5066961;28;8854;-76
2023/12/25 10:25:10;;;;;;;;;0.75;0.00;;;;;;;;5069121;28;8932;-77
2023/12/25 10:27:40;;;;;;;;;0.00;0.00;;;;;;;;5068640;28;8830;-78
2023/12/25 10:30:19;;;;;;;;;0.00;0.00;;;;;;;;5068796;28;8879;-78
2023/12/25 10:32:47;;;;;;;;;0.00;0.00;;;;;;;;5066583;28;8925;-74
2023/12/25 10:35:18;;;;;;;;;0.00;0.00;;;;;;;;5057587;28;8861;-77
2023/12/25 10:37:45;;;;;;;;;0.00;0.00;;;;;;;;5059793;28;8884;-77
2023/12/25 10:40:32;;;;;;;;;0.00;0.00;;;;;;;;5070568;28;8866;-75
2023/12/25 10:43:00;;;;;;;;;0.25;0.25;;;;;;;;5071607;28;8870;-81
2023/12/25 10:45:30;;;;;;;;;0.00;0.00;;;;;;;;5071635;28;8850;-76
2023/12/25 10:48:02;;;;;;;;;0.00;0.00;;;;;;;;5071188;28;8850;-77
2023/12/25 10:50:31;;;;;;;;;2.00;0.00;;;;;;;;5068896;28;8877;-76
2023/12/25 10:53:03;;;;;;;;;0.00;0.00;;;;;;;;5069553;28;8855;-76
2023/12/25 10:55:36;;;;;;;;;0.00;0.00;;;;;;;;5057896;28;8854;-78
2023/12/25 10:58:06;;;;;;;;;1.00;1.00;;;;;;;;5066896;28;8869;-77
2023/12/25 11:00:34;;;;;;;;;1.50;0.25;;;;;;;;5068467;28;8759;-80
2023/12/25 11:03:03;;;;;;;;;0.00;0.00;;;;;;;;5069978;28;8839;-77
2023/12/25 11:05:31;;;;;;;;;0.50;0.50;;;;;;;;5070298;28;8843;-78
2023/12/25 11:08:02;;;;;;;;;0.00;0.00;;;;;;;;5069772;28;8855;-77
2023/12/25 11:10:29;;;;;;;;;0.00;0.00;;;;;;;;5071105;28;8882;-81
2023/12/25 11:12:57;;;;;;;;;0.00;0.00;;;;;;;;5067180;28;8923;-79
2023/12/25 11:15:27;;;;;;;;;0.00;0.00;;;;;;;;5069338;28;8944;-79
2023/12/25 11:17:54;;;;;;;;;0.00;0.00;;;;;;;;5069498;28;8900;-78
2023/12/25 11:20:21;;;;;;;;;0.00;0.00;;;;;;;;5069687;28;8895;-80
2023/12/25 11:22:48;;;;;;;;;0.50;0.50;;;;;;;;5069166;28;8867;-77
2023/12/25 11:25:17;;;;;;;;;0.00;0.00;;;;;;;;5069198;28;8873;-76
2023/12/25 11:27:49;;;;;;;;;0.00;0.00;;;;;;;;5069246;28;8851;-75
2023/12/25 11:30:17;;;;;;;;;0.00;0.00;;;;;;;;5066851;28;8847;-76
2023/12/25 11:32:49;;;;;;;;;0.00;0.00;;;;;;;;5068508;28;8926;-79
2023/12/25 11:35:27;;;;;;;;;1.00;1.00;;;;;;;;5057238;28;8853;-75
2023/12/25 11:38:27;;;;;;;;;0.50;0.00;;;;;;;;5061632;28;8862;-81
2023/12/25 11:40:54;;;;;;;;;0.50;0.00;;;;;;;;5066622;28;8850;-82
2023/12/25 11:43:21;;;;;;;;;0.50;0.00;;;;;;;;5076434;28;8859;-77
2023/12/25 11:45:51;;;;;;;;;1.00;1.00;;;;;;;;5080287;28;8835;-74
2023/12/25 11:48:23;;;;;;;;;1.50;0.75;;;;;;;;5072564;28;9620;-78
2023/12/25 11:51:04;;;;;;;;;2.00;2.00;;;;;;;;5065019;28;8871;-85
2023/12/25 11:53:38;;;;;;;;;1.00;1.00;;;;;;;;5062381;28;8878;-76
2023/12/25 11:56:07;;;;;;;;;1.00;1.00;;;;;;;;5058047;28;8868;-75
2023/12/25 11:58:36;;;;;;;;;0.00;0.00;;;;;;;;5071978;28;8850;-75
2023/12/25 12:01:04;;;;;;;;;1.25;1.00;;;;;;;;5058964;28;8813;-75
2023/12/25 12:03:32;;;;;;;;;1.00;1.00;;;;;;;;5052666;28;8852;-77
2023/12/25 12:06:00;;;;;;;;;1.50;1.00;;;;;;;;5051842;28;8850;-78
2023/12/25 12:08:28;;;;;;;;;3.00;2.00;;;;;;;;5068299;28;8831;-74
2023/12/25 12:10:55;;;;;;;;;0.25;0.25;;;;;;;;5056755;28;8889;-78
2023/12/25 12:13:22;;;;;;;;;0.00;0.00;;;;;;;;5066953;28;8912;-73
2023/12/25 12:15:50;;;;;;;;;2.50;1.00;;;;;;;;5056603;28;8861;-75
2023/12/25 12:18:17;;;;;;;;;0.50;0.50;;;;;;;;5068213;28;8868;-78
2023/12/25 12:20:46;;;;;;;;;0.75;0.75;;;;;;;;5055990;28;8884;-76
2023/12/25 12:23:14;;;;;;;;;0.50;0.00;;;;;;;;5062520;28;8853;-76
2023/12/25 12:25:42;;;;;;;;;1.00;1.00;;;;;;;;5064913;28;8847;-76
2023/12/25 12:28:10;;;;;;;;;1.00;1.00;;;;;;;;5060130;28;9719;-78
2023/12/25 12:30:37;;;;;;;;;1.00;1.00;;;;;;;;5068254;28;8778;-77
2023/12/25 12:33:05;;;;;;;;;0.00;0.00;;;;;;;;5068399;28;8839;-74
2023/12/25 12:35:34;;;;;;;;;1.00;1.00;;;;;;;;5055358;28;8957;-75
2023/12/25 12:38:02;;;;;;;;;1.00;1.00;;;;;;;;5068390;28;8961;-76
2023/12/25 12:40:32;;;;;;;;;2.00;1.00;;;;;;;;5067442;28;9653;-76
2023/12/25 12:42:59;;;;;;;;;1.00;1.00;;;;;;;;5068096;28;8855;-75
2023/12/25 12:45:27;;;;;;;;;1.00;1.00;;;;;;;;5067993;28;8870;-74
2023/12/25 12:47:55;;;;;;;;;0.50;0.50;;;;;;;;5068160;28;8866;-76
2023/12/25 12:50:22;;;;;;;;;0.25;0.25;;;;;;;;5067518;28;8847;-78
2023/12/25 12:52:49;;;;;;;;;0.00;0.00;;;;;;;;5067892;28;8969;-75
2023/12/25 12:55:20;;;;;;;;;1.25;0.25;;;;;;;;5065252;28;8879;-75
2023/12/25 12:57:47;;;;;;;;;2.50;1.00;;;;;;;;5067453;28;8854;-79
2023/12/25 13:00:15;;;;;;;;;1.00;1.00;;;;;;;;5066442;28;9013;-77
2023/12/25 13:02:43;;;;;;;;;1.50;1.00;;;;;;;;5066234;28;8846;-78
2023/12/25 13:05:10;;;;;;;;;0.75;0.75;;;;;;;;5065849;28;8839;-77
2023/12/25 13:07:37;;;;;;;;;0.75;0.75;;;;;;;;5067764;28;8858;-76
2023/12/25 13:10:06;;;;;;;;;0.25;0.25;;;;;;;;5067817;28;8958;-78
2023/12/25 13:12:34;;;;;;;;;0.50;0.50;;;;;;;;5067118;28;8916;-76
2023/12/25 13:15:02;;;;;;;;;2.50;0.00;;;;;;;;5067760;28;8847;-78
2023/12/25 13:17:29;;;;;;;;;2.25;1.00;;;;;;;;5065877;28;8883;-76
2023/12/25 13:19:57;;;;;;;;;0.00;0.00;;;;;;;;5056319;28;8850;-77
2023/12/25 13:22:24;;;;;;;;;1.00;1.00;;;;;;;;5067250;28;9124;-77
2023/12/25 13:24:52;;;;;;;;;0.00;0.00;;;;;;;;5057953;28;8835;-78
2023/12/25 13:27:22;;;;;;;;;0.00;0.00;;;;;;;;5067428;28;8970;-75
2023/12/25 13:29:51;;;;;;;;;0.00;0.00;;;;;;;;5070027;28;8855;-74
2023/12/25 13:32:18;;;;;;;;;1.00;1.00;;;;;;;;5067959;28;8795;-75
2023/12/25 13:34:45;;;;;;;;;0.25;0.25;;;;;;;;5061143;28;8861;-76
2023/12/25 13:37:12;;;;;;;;;1.00;1.00;;;;;;;;5060574;28;8954;-76
2023/12/25 13:39:41;;;;;;;;;1.00;1.00;;;;;;;;5065344;28;8858;-79
2023/12/25 13:42:09;;;;;;;;;1.50;0.25;;;;;;;;5075385;28;8925;-79
2023/12/25 13:44:37;;;;;;;;;1.00;1.00;;;;;;;;5067771;28;8865;-77
2023/12/25 13:47:05;;;;;;;;;2.25;1.00;;;;;;;;5059705;28;8846;-75
2023/12/25 13:49:33;;;;;;;;;0.50;0.50;;;;;;;;5071992;28;8890;-79
2023/12/25 13:52:01;;;;;;;;;0.25;0.25;;;;;;;;5071721;28;9680;-78
2023/12/25 13:54:28;;;;;;;;;0.75;0.75;;;;;;;;5072547;28;8850;-78
2023/12/25 13:56:56;;;;;;;;;1.00;1.00;;;;;;;;5061672;28;8961;-79
2023/12/25 13:59:23;;;;;;;;;1.00;1.00;;;;;;;;5060642;28;8870;-75
2023/12/25 14:01:51;;;;;;;;;2.50;1.00;;;;;;;;5070414;28;8807;-76
2023/12/25 14:04:20;;;;;;;;;2.00;1.00;;;;;;;;5066885;28;8841;-76
2023/12/25 14:06:50;;;;;;;;;1.25;1.25;;;;;;;;5075113;28;8843;-75
2023/12/25 14:09:17;;;;;;;;;2.00;1.00;;;;;;;;5077773;28;8843;-73
2023/12/25 14:11:44;;;;;;;;;1.00;1.00;;;;;;;;5078341;28;8881;-76
2023/12/25 14:14:11;;;;;;;;;1.00;1.00;;;;;;;;5067064;28;8861;-74
2023/12/25 14:16:39;;;;;;;;;0.50;0.25;;;;;;;;5073508;28;8851;-75
2023/12/25 14:19:06;;;;;;;;;2.00;2.00;;;;;;;;5069364;28;9631;-79
2023/12/25 14:21:35;;;;;;;;;1.00;1.00;;;;;;;;5070335;28;8862;-75
2023/12/25 14:24:05;;;;;;;;;2.50;2.50;;;;;;;;5064073;28;8956;-75
2023/12/25 14:26:32;;;;;;;;;3.00;1.00;;;;;;;;5070071;28;8889;-75
2023/12/25 14:28:59;;;;;;;;;1.00;1.00;;;;;;;;5070478;28;8843;-76
2023/12/25 14:31:27;;;;;;;;;1.00;1.00;;;;;;;;5068043;28;8819;-76
2023/12/25 14:33:54;;;;;;;;;1.75;1.00;;;;;;;;5068628;28;8855;-77
2023/12/25 14:36:21;;;;;;;;;2.50;1.00;;;;;;;;5076711;28;8922;-76
2023/12/25 14:38:50;;;;;;;;;2.00;2.00;;;;;;;;5070554;28;8864;-76
2023/12/25 14:41:17;;;;;;;;;1.00;1.00;;;;;;;;5070895;28;8916;-77
2023/12/25 14:43:46;;;;;;;;;2.75;2.75;;;;;;;;5070408;28;8847;-80
2023/12/25 14:46:13;;;;;;;;;3.50;3.50;;;;;;;;5070121;28;8873;-75
2023/12/25 14:48:41;;;;;;;;;2.25;2.25;;;;;;;;5069514;28;8974;-77
2023/12/25 14:51:08;;;;;;;;;2.00;2.00;;;;;;;;5068509;28;8850;-76
2023/12/25 14:53:36;;;;;;;;;2.75;2.75;;;;;;;;5068023;28;9666;-77
2023/12/25 14:56:06;;;;;;;;;3.00;3.00;;;;;;;;5069875;28;8846;-80
2023/12/25 14:58:36;;;;;;;;;3.25;3.00;;;;;;;;5070398;28;8858;-76
2023/12/25 15:01:04;;;;;;;;;1.50;1.50;;;;;;;;5069450;28;8809;-77
2023/12/25 15:03:33;;;;;;;;;3.00;3.00;;;;;;;;5070060;28;8920;-76
2023/12/25 15:06:03;;;;;;;;;1.75;1.75;;;;;;;;5070449;28;8850;-81